createdAt,value
2018-10-21T00:00:12.922Z,8.31
2018-10-21T00:02:42.597Z,8.32
2018-10-21T00:05:12.842Z,8.31
2018-10-21T00:07:42.415Z,8.31
2018-10-21T00:10:12.298Z,8.25
2018-10-21T00:12:41.948Z,8.25
2018-10-21T00:15:21.823Z,8.30
2018-10-21T00:17:51.455Z,8.54
2018-10-21T00:20:21.419Z,8.52
2018-10-21T00:22:51.784Z,8.38
2018-10-21T00:25:22.433Z,8.28
2018-10-21T00:27:52.379Z,8.17
2018-10-21T00:30:22.024Z,7.99
2018-10-21T00:32:52.596Z,7.95
2018-10-21T00:35:22.379Z,7.86
2018-10-21T00:37:52.044Z,7.76
2018-10-21T00:40:21.703Z,7.72
2018-10-21T00:42:51.310Z,7.62
2018-10-21T00:45:20.977Z,7.58
2018-10-21T00:47:50.538Z,7.50
2018-10-21T00:50:20.738Z,7.45
2018-10-21T00:52:50.761Z,7.44
2018-10-21T00:55:20.783Z,7.41
2018-10-21T00:57:50.545Z,7.31
2018-10-21T01:00:21.152Z,7.14
2018-10-21T01:02:51.455Z,6.97
2018-10-21T01:05:21.126Z,6.80
2018-10-21T01:07:50.905Z,6.78
2018-10-21T01:10:20.670Z,6.74
2018-10-21T01:12:50.374Z,6.76
2018-10-21T01:15:20.483Z,6.84
2018-10-21T01:17:50.322Z,6.84
2018-10-21T01:20:20.757Z,6.75
2018-10-21T01:22:51.046Z,6.68
2018-10-21T01:25:22.816Z,6.72
2018-10-21T01:27:52.419Z,6.71
2018-10-21T01:30:22.035Z,6.72
2018-10-21T01:32:51.707Z,6.71
2018-10-21T01:35:21.362Z,6.78
2018-10-21T01:37:51.241Z,6.88
2018-10-21T01:40:37.513Z,6.97
2018-10-21T01:43:09.359Z,6.97
2018-10-21T01:45:44.724Z,6.95
2018-10-21T01:48:15.238Z,6.90
2018-10-21T01:50:44.590Z,6.80
2018-10-21T01:53:15.023Z,6.78
2018-10-21T01:55:44.365Z,6.69
2018-10-21T01:58:13.682Z,6.61
2018-10-21T02:00:43.533Z,6.53
2018-10-21T02:03:28.926Z,6.49
2018-10-21T02:05:58.277Z,6.48
2018-10-21T02:08:27.581Z,6.33
2018-10-21T02:10:56.888Z,6.26
2018-10-21T02:13:26.214Z,6.27
2018-10-21T02:15:55.555Z,6.31
2018-10-21T02:18:24.877Z,6.31
2018-10-21T02:20:54.257Z,6.37
2018-10-21T02:23:23.531Z,6.32
2018-10-21T02:25:52.864Z,6.17
2018-10-21T02:28:22.197Z,6.12
2018-10-21T02:30:51.490Z,6.23
2018-10-21T02:33:47.861Z,6.35
2018-10-21T02:36:17.177Z,6.55
2018-10-21T02:38:46.566Z,6.67
2018-10-21T02:41:36.998Z,6.83
2018-10-21T02:44:08.039Z,6.94
2018-10-21T02:46:37.977Z,6.99
2018-10-21T02:49:17.726Z,7.06
2018-10-21T02:51:52.322Z,7.20
2018-10-21T02:54:23.222Z,7.32
2018-10-21T02:56:52.846Z,7.45
2018-10-21T02:59:22.822Z,7.58
2018-10-21T03:01:52.178Z,7.58
2018-10-21T03:04:21.834Z,7.63
2018-10-21T03:06:51.549Z,7.66
2018-10-21T03:09:21.137Z,7.78
2018-10-21T03:11:50.437Z,7.73
2018-10-21T03:14:19.765Z,7.75
2018-10-21T03:16:49.137Z,7.81
2018-10-21T03:19:18.459Z,7.90
2018-10-21T03:21:48.053Z,7.91
2018-10-21T03:24:17.750Z,7.95
2018-10-21T03:26:48.088Z,8.03
2018-10-21T03:29:17.419Z,8.07
2018-10-21T03:31:46.747Z,8.11
2018-10-21T03:34:16.051Z,8.10
2018-10-21T03:36:45.360Z,8.08
2018-10-21T03:39:37.044Z,8.13
2018-10-21T03:42:06.395Z,8.20
2018-10-21T03:44:35.702Z,8.24
2018-10-21T03:47:05.055Z,8.25
2018-10-21T03:49:34.353Z,8.29
2018-10-21T03:52:03.756Z,8.30
2018-10-21T03:54:33.050Z,8.31
2018-10-21T03:57:02.350Z,8.32
2018-10-21T03:59:31.658Z,8.31
2018-10-21T04:02:01.022Z,8.31
2018-10-21T04:04:30.326Z,8.36
2018-10-21T04:06:59.633Z,8.42
2018-10-21T04:09:28.973Z,8.47
2018-10-21T04:11:58.278Z,8.51
2018-10-21T04:14:27.584Z,8.55
2018-10-21T04:16:56.930Z,8.59
2018-10-21T04:19:26.230Z,8.64
2018-10-21T04:21:55.552Z,8.60
2018-10-21T04:24:24.884Z,8.44
2018-10-21T04:26:54.194Z,8.30
2018-10-21T04:29:23.523Z,8.41
2018-10-21T04:31:52.851Z,8.46
2018-10-21T04:34:22.163Z,8.22
2018-10-21T04:36:51.530Z,8.08
2018-10-21T04:39:38.710Z,8.02
2018-10-21T04:42:08.030Z,8.01
2018-10-21T04:44:37.353Z,8.02
2018-10-21T04:47:07.082Z,7.98
2018-10-21T04:49:36.263Z,7.92
2018-10-21T04:52:05.634Z,7.86
2018-10-21T04:54:34.954Z,7.82
2018-10-21T04:57:16.634Z,7.74
2018-10-21T04:59:45.974Z,7.73
2018-10-21T05:02:15.290Z,7.68
2018-10-21T05:04:44.586Z,7.67
2018-10-21T05:07:13.929Z,7.66
2018-10-21T05:09:43.226Z,7.53
2018-10-21T05:12:12.557Z,7.58
2018-10-21T05:14:41.906Z,7.61
2018-10-21T05:17:11.226Z,7.65
2018-10-21T05:19:40.541Z,7.70
2018-10-21T05:22:09.915Z,7.73
2018-10-21T05:24:39.202Z,7.75
2018-10-21T05:27:08.981Z,7.80
2018-10-21T05:29:38.302Z,7.87
2018-10-21T05:32:07.610Z,7.87
2018-10-21T05:34:36.927Z,7.88
2018-10-21T05:37:07.210Z,7.88
2018-10-21T05:39:36.574Z,7.87
2018-10-21T05:42:05.957Z,7.89
2018-10-21T05:44:35.283Z,7.89
2018-10-21T05:47:04.609Z,7.88
2018-10-21T05:49:33.936Z,7.84
2018-10-21T05:52:03.308Z,7.87
2018-10-21T05:54:34.798Z,7.93
2018-10-21T05:57:04.130Z,7.96
2018-10-21T05:59:33.427Z,7.97
2018-10-21T06:02:02.775Z,8.05
2018-10-21T06:04:32.237Z,8.13
2018-10-21T06:07:01.612Z,8.19
2018-10-21T06:09:30.960Z,8.28
2018-10-21T06:12:00.307Z,8.29
2018-10-21T06:14:29.611Z,8.24
2018-10-21T06:17:05.370Z,8.30
2018-10-21T06:19:39.461Z,8.38
2018-10-21T06:22:08.818Z,8.50
2018-10-21T06:24:38.149Z,8.55
2018-10-21T06:27:07.538Z,8.63
2018-10-21T06:29:36.857Z,8.63
2018-10-21T06:32:06.211Z,8.69
2018-10-21T06:34:55.016Z,8.78
2018-10-21T06:37:24.334Z,8.85
2018-10-21T06:39:53.698Z,8.87
2018-10-21T06:42:23.033Z,8.88
2018-10-21T06:44:52.454Z,8.93
2018-10-21T06:47:21.761Z,8.98
2018-10-21T06:49:51.090Z,9.09
2018-10-21T06:52:20.409Z,9.12
2018-10-21T06:54:49.701Z,9.23
2018-10-21T06:57:19.270Z,9.26
2018-10-21T06:59:48.359Z,9.45
2018-10-21T07:02:17.679Z,9.50
2018-10-21T07:04:47.073Z,9.66
2018-10-21T07:07:16.838Z,9.78
2018-10-21T07:09:46.145Z,9.94
2018-10-21T07:12:15.473Z,9.92
2018-10-21T07:15:09.225Z,10.00
2018-10-21T07:17:38.554Z,10.12
2018-10-21T07:20:08.194Z,10.18
2018-10-21T07:22:37.546Z,10.38
2018-10-21T07:25:08.131Z,10.82
2018-10-21T07:27:49.563Z,10.99
2018-10-21T07:30:18.874Z,11.06
2018-10-21T07:32:48.226Z,11.18
2018-10-21T07:35:17.561Z,11.31
2018-10-21T07:37:46.915Z,11.23
2018-10-21T07:40:23.171Z,11.58
2018-10-21T07:42:52.541Z,11.68
2018-10-21T07:45:21.888Z,11.54
2018-10-21T07:47:51.263Z,11.60
2018-10-21T07:50:30.782Z,11.52
2018-10-21T07:53:00.123Z,11.65
2018-10-21T07:55:29.464Z,12.15
2018-10-21T07:57:58.861Z,12.41
2018-10-21T08:00:28.222Z,12.30
2018-10-21T08:02:57.727Z,12.38
2018-10-21T08:05:44.104Z,12.51
2018-10-21T08:08:16.586Z,12.75
2018-10-21T08:10:52.390Z,12.63
2018-10-21T08:13:23.191Z,12.56
2018-10-21T08:15:52.529Z,12.63
2018-10-21T08:18:21.892Z,12.70
2018-10-21T08:20:51.755Z,12.95
2018-10-21T08:23:21.115Z,12.45
2018-10-21T08:25:51.111Z,12.23
2018-10-21T08:28:20.467Z,12.55
2018-10-21T08:30:49.796Z,12.65
2018-10-21T08:33:24.545Z,12.92
2018-10-21T08:35:53.908Z,13.03
2018-10-21T08:38:23.174Z,13.18
2018-10-21T08:40:52.513Z,13.39
2018-10-21T08:43:21.826Z,13.50
2018-10-21T08:45:51.141Z,13.28
2018-10-21T08:48:20.508Z,13.52
2018-10-21T08:50:49.950Z,13.57
2018-10-21T08:53:19.281Z,13.70
2018-10-21T08:56:19.849Z,13.43
2018-10-21T08:58:49.161Z,13.81
2018-10-21T09:01:18.548Z,14.32
2018-10-21T09:03:47.826Z,14.92
2018-10-21T09:09:20.798Z,15.23
2018-10-21T09:12:20.979Z,16.38
2018-10-21T09:14:50.366Z,17.19
2018-10-21T09:17:19.665Z,16.68
2018-10-21T09:19:49.009Z,16.00
2018-10-21T09:22:18.414Z,16.48
2018-10-21T09:24:47.703Z,16.55
2018-10-21T09:27:17.709Z,15.81
2018-10-21T09:29:47.035Z,15.02
2018-10-21T09:32:16.363Z,15.74
2018-10-21T09:34:45.698Z,16.14
2018-10-21T09:37:15.043Z,15.95
2018-10-21T09:39:44.976Z,15.80
2018-10-21T09:42:14.393Z,15.71
2018-10-21T09:44:43.929Z,15.91
2018-10-21T09:47:13.281Z,16.36
2018-10-21T09:49:42.715Z,16.54
2018-10-21T09:52:12.669Z,16.90
2018-10-21T09:54:41.910Z,17.36
2018-10-21T09:57:11.297Z,16.94
2018-10-21T09:59:40.615Z,16.95
2018-10-21T10:02:15.173Z,16.62
2018-10-21T10:04:44.530Z,17.33
2018-10-21T10:07:13.859Z,16.83
2018-10-21T10:09:46.330Z,17.79
2018-10-21T10:12:15.654Z,19.30
2018-10-21T10:14:44.958Z,17.74
2018-10-21T10:17:14.282Z,17.08
2018-10-21T10:19:43.588Z,16.23
2018-10-21T10:22:12.995Z,16.70
2018-10-21T10:24:42.274Z,16.48
2018-10-21T10:27:11.603Z,16.83
2018-10-21T10:29:40.950Z,17.68
2018-10-21T10:32:10.286Z,18.54
2018-10-21T10:34:39.694Z,18.59
2018-10-21T10:37:09.060Z,18.22
2018-10-21T10:39:38.357Z,18.72
2018-10-21T10:42:07.943Z,18.88
2018-10-21T10:47:38.833Z,19.76
2018-10-21T10:50:10.573Z,19.50
2018-10-21T10:52:46.161Z,19.19
2018-10-21T10:55:15.672Z,18.80
2018-10-21T10:57:45.356Z,18.09
2018-10-21T11:00:14.805Z,19.97
2018-10-21T11:02:44.059Z,21.21
2018-10-21T11:05:13.370Z,21.85
2018-10-21T11:07:45.156Z,21.86
2018-10-21T11:10:15.897Z,22.75
2018-10-21T11:12:47.104Z,21.59
2018-10-21T11:15:16.502Z,21.87
2018-10-21T11:21:05.825Z,19.65
2018-10-21T11:23:35.158Z,19.35
2018-10-21T11:26:04.826Z,20.13
2018-10-21T11:28:39.991Z,20.34
2018-10-21T11:31:09.367Z,20.39
2018-10-21T11:33:38.641Z,20.43
2018-10-21T11:36:08.045Z,20.31
2018-10-21T11:38:44.326Z,20.15
2018-10-21T11:41:13.669Z,20.21
2018-10-21T11:43:43.055Z,20.34
2018-10-21T11:46:12.492Z,20.47
2018-10-21T11:48:41.734Z,21.76
2018-10-21T11:51:17.791Z,21.24
2018-10-21T11:53:47.133Z,21.03
2018-10-21T11:56:34.363Z,20.28
2018-10-21T11:59:03.816Z,20.37
2018-10-21T12:01:33.193Z,20.20
2018-10-21T12:04:02.645Z,21.07
2018-10-21T12:06:33.019Z,21.19
2018-10-21T12:09:13.517Z,21.28
2018-10-21T12:11:43.922Z,20.84
2018-10-21T12:14:26.289Z,21.09
2018-10-21T12:16:55.882Z,21.75
2018-10-21T12:19:44.412Z,21.43
2018-10-21T12:22:13.852Z,20.73
2018-10-21T12:24:53.312Z,19.71
2018-10-21T12:27:22.698Z,19.21
2018-10-21T12:29:52.027Z,19.99
2018-10-21T12:32:21.437Z,20.15
2018-10-21T12:34:50.793Z,20.52
2018-10-21T12:37:20.143Z,20.71
2018-10-21T12:39:49.463Z,20.35
2018-10-21T12:42:18.802Z,20.24
2018-10-21T12:44:48.178Z,21.47
2018-10-21T12:47:17.525Z,20.71
2018-10-21T12:49:48.258Z,20.69
2018-10-21T12:52:17.638Z,20.15
2018-10-21T12:54:51.258Z,20.47
2018-10-21T12:57:23.999Z,20.71
2018-10-21T12:59:53.334Z,20.75
2018-10-21T13:02:32.997Z,21.59
2018-10-21T13:05:02.330Z,22.19
2018-10-21T13:07:31.700Z,22.77
2018-10-21T13:10:01.085Z,20.96
2018-10-21T13:12:30.416Z,21.14
2018-10-21T13:15:19.728Z,21.26
2018-10-21T13:17:49.067Z,21.38
2018-10-21T13:20:18.386Z,21.29
2018-10-21T13:25:53.754Z,21.47
2018-10-21T13:28:23.226Z,21.75
2018-10-21T13:30:52.411Z,21.90
2018-10-21T13:33:21.734Z,21.15
2018-10-21T13:35:51.069Z,21.26
2018-10-21T13:38:20.374Z,21.82
2018-10-21T13:40:49.733Z,22.05
2018-10-21T13:43:19.311Z,21.99
2018-10-21T13:45:48.655Z,21.61
2018-10-21T13:48:18.588Z,21.24
2018-10-21T13:50:47.934Z,21.23
2018-10-21T13:53:17.330Z,20.96
2018-10-21T13:55:52.358Z,21.21
2018-10-21T13:58:21.789Z,20.10
2018-10-21T14:00:51.125Z,19.84
2018-10-21T14:03:20.471Z,19.95
2018-10-21T14:05:49.774Z,20.06
2018-10-21T14:08:19.129Z,19.93
2018-10-21T14:11:01.085Z,19.44
2018-10-21T14:13:30.413Z,19.55
2018-10-21T14:15:59.855Z,19.79
2018-10-21T14:18:41.512Z,19.92
2018-10-21T14:21:10.841Z,19.89
2018-10-21T14:23:40.159Z,19.29
2018-10-21T14:26:16.698Z,19.32
2018-10-21T14:28:46.626Z,19.20
2018-10-21T14:31:15.962Z,19.26
2018-10-21T14:33:45.309Z,19.20
2018-10-21T14:36:14.663Z,19.63
2018-10-21T14:38:44.049Z,19.00
2018-10-21T14:41:13.429Z,18.69
2018-10-21T14:43:43.073Z,18.67
2018-10-21T14:46:24.925Z,18.43
2018-10-21T14:48:54.259Z,18.87
2018-10-21T14:51:24.622Z,18.51
2018-10-21T14:53:53.942Z,18.48
2018-10-21T14:56:42.022Z,18.27
2018-10-21T14:59:11.347Z,18.32
2018-10-21T15:01:40.683Z,18.11
2018-10-21T15:04:10.024Z,18.27
2018-10-21T15:06:39.357Z,18.32
2018-10-21T15:09:12.399Z,18.51
2018-10-21T15:11:43.217Z,18.43
2018-10-21T15:14:13.122Z,18.88
2018-10-21T15:16:42.401Z,19.57
2018-10-21T15:19:11.805Z,20.16
2018-10-21T15:21:41.275Z,20.18
2018-10-21T15:24:39.434Z,19.50
2018-10-21T15:27:31.134Z,19.09
2018-10-21T15:30:19.811Z,19.11
2018-10-21T15:32:49.117Z,18.74
2018-10-21T15:35:18.482Z,18.22
2018-10-21T15:37:47.814Z,18.83
2018-10-21T15:40:17.196Z,18.41
2018-10-21T15:42:46.532Z,18.26
2018-10-21T15:45:15.830Z,18.28
2018-10-21T15:47:45.202Z,18.04
2018-10-21T15:50:14.726Z,17.49
2018-10-21T15:52:58.278Z,17.00
2018-10-21T15:55:27.689Z,16.46
2018-10-21T15:57:57.046Z,15.85
2018-10-21T16:00:40.534Z,15.48
2018-10-21T16:03:09.830Z,15.12
2018-10-21T16:06:03.469Z,14.95
2018-10-21T16:08:36.842Z,14.65
2018-10-21T16:11:06.973Z,14.51
2018-10-21T16:13:39.961Z,14.30
2018-10-21T16:16:17.092Z,14.10
2018-10-21T16:18:58.854Z,13.95
2018-10-21T16:21:57.145Z,13.80
2018-10-21T16:24:26.445Z,13.57
2018-10-21T16:27:02.554Z,13.51
2018-10-21T16:29:36.890Z,13.49
2018-10-21T16:32:07.307Z,13.50
2018-10-21T16:37:37.623Z,13.30
2018-10-21T16:43:11.762Z,13.19
2018-10-21T16:45:48.328Z,13.07
2018-10-21T16:48:23.279Z,12.99
2018-10-21T16:53:58.136Z,12.91
2018-10-21T16:59:32.477Z,12.71
2018-10-21T17:02:01.799Z,12.58
2018-10-21T17:04:41.521Z,12.40
2018-10-21T17:07:10.926Z,12.33
2018-10-21T17:09:41.505Z,12.14
2018-10-21T17:12:10.601Z,11.96
2018-10-21T17:14:44.270Z,11.79
2018-10-21T17:17:14.058Z,11.71
2018-10-21T17:19:55.677Z,11.51
2018-10-21T17:22:25.017Z,11.36
2018-10-21T17:25:12.139Z,11.26
2018-10-21T17:27:41.577Z,11.16
2018-10-21T17:30:14.586Z,11.16
2018-10-21T17:32:44.791Z,11.06
2018-10-21T17:35:14.158Z,11.01
2018-10-21T17:37:43.559Z,10.94
2018-10-21T17:43:37.990Z,10.88
2018-10-21T17:46:07.527Z,10.75
2018-10-21T17:48:36.857Z,10.62
2018-10-21T17:51:06.584Z,10.60
2018-10-21T17:53:41.681Z,10.49
2018-10-21T17:59:13.362Z,10.37
2018-10-21T18:02:04.152Z,10.33
2018-10-21T18:07:33.352Z,10.23
2018-10-21T18:10:02.891Z,10.15
2018-10-21T18:12:38.478Z,10.06
2018-10-21T18:15:09.243Z,10.05
2018-10-21T18:18:08.649Z,10.06
2018-10-21T18:20:38.101Z,9.94
2018-10-21T18:23:15.409Z,9.87
2018-10-21T18:25:49.968Z,9.85
2018-10-21T18:28:20.384Z,9.85
2018-10-21T18:30:50.324Z,9.83
2018-10-21T18:33:38.218Z,9.78
2018-10-21T18:39:11.130Z,9.84
2018-10-21T18:41:40.498Z,9.77
2018-10-21T18:44:10.405Z,9.71
2018-10-21T18:46:45.390Z,9.65
2018-10-21T18:49:27.643Z,9.54
2018-10-21T18:51:57.945Z,9.43
2018-10-21T18:54:27.314Z,9.29
2018-10-21T18:57:04.985Z,9.11
2018-10-21T18:59:59.102Z,8.96
2018-10-21T19:02:28.449Z,8.80
2018-10-21T19:05:23.407Z,8.57
2018-10-21T19:07:53.206Z,8.43
2018-10-21T19:10:22.703Z,8.47
2018-10-21T19:13:00.056Z,8.56
2018-10-21T19:15:24.937Z,8.66
2018-10-21T19:18:00.270Z,8.72
2018-10-21T19:20:29.571Z,8.74
2018-10-21T19:22:58.992Z,8.58
2018-10-21T19:25:37.954Z,8.62
2018-10-21T19:28:07.309Z,8.61
2018-10-21T19:30:36.621Z,8.78
2018-10-21T19:33:06.557Z,8.67
2018-10-21T19:35:35.906Z,8.57
2018-10-21T19:38:05.263Z,8.54
2018-10-21T19:40:34.597Z,8.46
2018-10-21T19:43:04.026Z,8.20
2018-10-21T19:45:33.265Z,8.08
2018-10-21T19:48:02.585Z,7.78
2018-10-21T19:50:31.976Z,7.53
2018-10-21T19:56:05.259Z,7.53
2018-10-21T20:04:56.293Z,7.38
2018-10-21T20:07:26.173Z,7.44
2018-10-21T20:09:56.686Z,7.45
2018-10-21T20:12:29.383Z,7.55
2018-10-21T20:15:12.049Z,7.53
2018-10-21T20:17:44.233Z,7.38
2018-10-21T20:20:20.951Z,7.21
2018-10-21T20:22:50.302Z,7.19
2018-10-21T20:25:21.237Z,7.06
2018-10-21T20:27:50.714Z,7.01
2018-10-21T20:30:20.095Z,7.06
2018-10-21T20:32:50.253Z,7.04
2018-10-21T20:35:20.414Z,7.13
2018-10-21T20:37:51.005Z,7.21
2018-10-21T20:40:22.727Z,7.20
2018-10-21T20:42:55.673Z,7.29
2018-10-21T20:45:25.318Z,7.16
2018-10-21T20:48:00.655Z,6.91
2018-10-21T20:50:30.256Z,6.75
2018-10-21T20:52:59.583Z,6.78
2018-10-21T20:55:29.872Z,6.84
2018-10-21T20:57:59.389Z,6.92
2018-10-21T21:00:28.823Z,6.91
2018-10-21T21:03:23.145Z,6.88
2018-10-21T21:05:53.006Z,6.78
2018-10-21T21:08:22.389Z,6.86
2018-10-21T21:10:57.061Z,7.18
2018-10-21T21:13:28.705Z,7.15
2018-10-21T21:16:01.441Z,6.97
2018-10-21T21:18:30.926Z,6.98
2018-10-21T21:21:00.309Z,6.92
2018-10-21T21:23:39.861Z,7.04
2018-10-21T21:26:09.151Z,6.91
2018-10-21T21:28:38.678Z,6.86
2018-10-21T21:31:08.513Z,6.82
2018-10-21T21:33:38.402Z,6.67
2018-10-21T21:36:11.787Z,6.61
2018-10-21T21:38:42.233Z,6.47
2018-10-21T21:41:11.638Z,6.19
2018-10-21T21:44:11.794Z,5.96
2018-10-21T21:46:51.309Z,5.87
2018-10-21T21:49:21.998Z,6.03
2018-10-21T21:51:51.503Z,6.25
2018-10-21T21:54:23.697Z,6.46
2018-10-21T21:56:53.425Z,6.56
2018-10-21T21:59:24.730Z,6.75
2018-10-21T22:01:54.153Z,6.78
2018-10-21T22:04:23.625Z,6.71
2018-10-21T22:07:09.929Z,6.65
2018-10-21T22:09:39.999Z,6.81
2018-10-21T22:12:09.941Z,6.85
2018-10-21T22:14:39.270Z,6.78
2018-10-21T22:17:08.577Z,6.98
2018-10-21T22:19:37.887Z,7.08
2018-10-21T22:22:23.613Z,7.11
2018-10-21T22:24:52.933Z,7.16
2018-10-21T22:27:26.054Z,7.20
2018-10-21T22:29:55.802Z,7.12
2018-10-21T22:32:27.489Z,7.13
2018-10-21T22:34:58.961Z,7.03
2018-10-21T22:37:36.468Z,6.96
2018-10-21T22:40:08.968Z,6.86
2018-10-21T22:42:43.793Z,6.77
2018-10-21T22:45:13.124Z,6.76
2018-10-21T22:47:45.194Z,6.80
2018-10-21T22:50:14.782Z,6.71
2018-10-21T22:52:45.430Z,6.66
2018-10-21T22:55:14.746Z,6.68
2018-10-21T22:57:48.205Z,6.38
2018-10-21T23:00:17.660Z,6.11
2018-10-21T23:02:51.126Z,5.87
2018-10-21T23:05:25.471Z,5.82
2018-10-21T23:07:55.027Z,5.93
2018-10-21T23:10:28.029Z,5.78
2018-10-21T23:12:57.497Z,5.68
2018-10-21T23:15:26.830Z,5.68
2018-10-21T23:17:56.414Z,5.62
2018-10-21T23:20:25.724Z,5.67
2018-10-21T23:22:56.474Z,5.59
2018-10-21T23:25:40.545Z,5.60
2018-10-21T23:28:09.925Z,5.44
2018-10-21T23:30:39.258Z,5.38
2018-10-21T23:33:21.958Z,5.34
2018-10-21T23:35:51.581Z,5.30
2018-10-21T23:38:21.173Z,5.38
2018-10-21T23:40:50.485Z,5.43
2018-10-21T23:43:19.838Z,5.27
2018-10-21T23:45:49.147Z,5.19
2018-10-21T23:48:18.673Z,5.27
2018-10-21T23:50:51.404Z,5.19
2018-10-21T23:53:25.718Z,4.99
2018-10-21T23:55:59.233Z,4.79
2018-10-21T23:58:29.254Z,4.57
